Time;durP1;ratioP1;P1;durP2;ratioP2;P2;SDS_P1;SDS_P2;PMS_P1;PMS_P2;Temp;Humidity;BMP_temperature;BMP_pressure;BME280_temperature;BME280_humidity;BME280_pressure;Samples;Min_cycle;Max_cycle;Signal;HPM_P1;HPM_P2
2022/10/02 08:01:49;;;;;;;19.08;10.40;;;;;;;13.60;100.00;101464.78;5320377;27;20399;-76
2022/10/02 08:04:28;;;;;;;17.80;10.95;;;;;;;13.64;100.00;101468.66;5299942;28;20510;-76
2022/10/02 08:07:03;;;;;;;20.92;11.52;;;;;;;13.67;100.00;101476.44;5299772;28;20032;-76
2022/10/02 08:09:40;;;;;;;16.58;11.07;;;;;;;13.70;100.00;101478.63;5282236;28;20029;-76
2022/10/02 08:12:55;;;;;;;17.83;11.88;;;;;;;13.74;100.00;101484.44;5278618;28;20021;-77
2022/10/02 08:15:33;;;;;;;15.90;12.15;;;;;;;13.78;100.00;101491.94;5277851;28;20468;-77
2022/10/02 08:18:13;;;;;;;20.77;12.57;;;;;;;13.83;100.00;101491.88;5278617;28;20025;-76
2022/10/02 08:20:47;;;;;;;17.30;11.70;;;;;;;13.82;100.00;101494.94;5278631;28;20153;-76
2022/10/02 08:23:26;;;;;;;22.75;12.02;;;;;;;13.91;100.00;101496.78;5278142;28;20037;-77
2022/10/02 08:26:23;;;;;;;19.20;12.98;;;;;;;13.91;100.00;101499.59;5282291;28;20097;-75
2022/10/02 08:29:04;;;;;;;17.27;13.18;;;;;;;13.94;100.00;101506.53;5293551;28;20793;-76
2022/10/02 08:31:36;;;;;;;17.80;13.23;;;;;;;13.96;100.00;101506.22;5278882;28;20033;-77
2022/10/02 08:34:19;;;;;;;17.77;12.70;;;;;;;14.00;100.00;101512.88;5277997;28;20094;-77
2022/10/02 08:37:16;;;;;;;18.02;11.15;;;;;;;14.04;100.00;101502.78;5277839;28;20028;-76
2022/10/02 08:40:06;;;;;;;;;;;;;;;14.09;100.00;101511.91;5278160;28;20848;-76
2022/10/02 08:43:07;;;;;;;13.88;10.38;;;;;;;14.10;100.00;101515.53;5276948;28;20288;-76
2022/10/02 08:46:10;;;;;;;16.38;11.82;;;;;;;14.16;100.00;101521.88;5278258;28;20098;-77
2022/10/02 08:49:20;;;;;;;16.45;10.68;;;;;;;14.19;100.00;101524.06;5278087;28;20361;-76
2022/10/02 08:52:19;;;;;;;19.58;10.15;;;;;;;14.27;100.00;101538.22;5253615;28;20385;-76
2022/10/02 08:55:16;;;;;;;16.40;9.88;;;;;;;14.28;100.00;101537.06;5278026;28;20032;-76
2022/10/02 08:57:59;;;;;;;17.25;10.07;;;;;;;14.27;100.00;101529.84;5277253;28;20032;-76
2022/10/02 09:01:14;;;;;;;12.88;7.78;;;;;;;14.32;100.00;101529.78;5288627;28;20112;-77
2022/10/02 09:04:19;;;;;;;13.68;7.93;;;;;;;14.39;100.00;101542.53;5260092;28;20043;-76
2022/10/02 09:07:12;;;;;;;17.33;11.57;;;;;;;14.44;100.00;101537.69;5300049;28;20024;-79
2022/10/02 09:10:02;;;;;;;11.13;7.90;;;;;;;14.44;100.00;101545.25;5298606;28;20032;-76
2022/10/02 09:13:17;;;;;;;15.30;7.78;;;;;;;14.43;100.00;101546.38;5287170;28;20499;-75
2022/10/02 09:16:07;;;;;;;15.23;7.78;;;;;;;14.44;100.00;101546.06;5284305;28;20032;-76
2022/10/02 09:18:54;;;;;;;12.55;8.57;;;;;;;14.48;100.00;101540.75;5283694;28;20032;-77
2022/10/02 09:21:49;;;;;;;15.77;9.48;;;;;;;14.56;100.00;101559.63;5292139;28;20431;-76
2022/10/02 09:24:23;;;;;;;22.50;11.15;;;;;;;14.53;100.00;101547.09;5305001;28;20016;-76
2022/10/02 09:27:17;;;;;;;15.32;8.32;;;;;;;14.54;100.00;101545.16;5304284;28;20028;-76
2022/10/02 09:30:19;;;;;;;14.25;8.07;;;;;;;14.57;100.00;101547.31;5304968;28;20106;-75
2022/10/02 09:33:09;;;;;;;15.10;7.07;;;;;;;14.62;100.00;101550.06;5304416;28;20034;-76
2022/10/02 09:35:56;;;;;;;16.33;8.60;;;;;;;14.59;100.00;101550.66;5305228;28;20024;-76
2022/10/02 09:39:09;;;;;;;18.52;7.90;;;;;;;14.59;100.00;101559.03;5303910;28;20360;-76
2022/10/02 09:42:22;;;;;;;12.52;9.35;;;;;;;14.67;100.00;101551.94;5275380;28;20070;-76
2022/10/02 09:45:06;;;;;;;13.07;7.18;;;;;;;14.67;100.00;101563.94;5304780;28;20056;-76
2022/10/02 09:48:00;;;;;;;19.15;8.15;;;;;;;14.75;100.00;101562.44;5304064;28;20341;-76
2022/10/02 09:51:15;;;;;;;11.77;6.85;;;;;;;14.81;100.00;101557.63;5304699;28;20058;-75
2022/10/02 09:54:13;;;;;;;16.58;6.30;;;;;;;14.76;100.00;101570.53;5304052;28;20031;-75
2022/10/02 09:57:30;;;;;;;13.88;6.68;;;;;;;14.78;100.00;101564.66;5303555;28;20107;-76
2022/10/02 10:00:13;;;;;;;14.02;6.63;;;;;;;14.82;100.00;101573.25;5282715;28;20556;-77
2022/10/02 10:03:25;;;;;;;15.48;8.23;;;;;;;14.91;100.00;101571.44;5283531;28;20032;-76
2022/10/02 10:06:44;;;;;;;13.85;6.63;;;;;;;14.98;100.00;101575.53;5283367;28;20035;-76
2022/10/02 10:09:38;;;;;;;14.65;7.60;;;;;;;14.97;100.00;101576.66;5256652;28;20067;-75
2022/10/02 10:12:12;;;;;;;16.27;7.53;;;;;;;15.06;100.00;101579.59;5283823;28;20028;-76
2022/10/02 10:14:55;;;;;;;12.80;7.57;;;;;;;15.11;100.00;101582.31;5282761;28;20377;-75
2022/10/02 10:18:04;;;;;;;14.40;6.60;;;;;;;15.24;100.00;101577.94;5283284;28;20032;-75
2022/10/02 10:20:53;;;;;;;18.75;7.45;;;;;;;15.20;100.00;101580.50;5282955;28;20042;-75
2022/10/02 10:24:02;;;;;;;13.23;6.60;;;;;;;15.25;100.00;101592.72;5281539;28;20020;-76
2022/10/02 10:26:49;;;;;;;14.27;6.85;;;;;;;15.22;100.00;101592.19;5283051;28;20032;-76
2022/10/02 10:29:52;;;;;;;10.90;5.70;;;;;;;15.25;100.00;101596.34;5282593;28;20021;-77
2022/10/02 10:32:48;;;;;;;14.82;5.80;;;;;;;15.31;100.00;101605.47;5282881;28;20028;-77
2022/10/02 10:35:53;;;;;;;12.45;5.35;;;;;;;15.28;100.00;101615.31;5297195;28;20032;-76
2022/10/02 10:38:51;;;;;;;15.88;5.60;;;;;;;15.28;100.00;101622.84;5303683;28;20051;-76
2022/10/02 10:42:10;;;;;;;11.43;5.15;;;;;;;15.26;100.00;101627.91;5287102;28;20479;-76
2022/10/02 10:45:06;;;;;;;15.75;5.70;;;;;;;15.29;100.00;101630.94;5282894;28;20025;-75
2022/10/02 10:48:01;;;;;;;16.98;8.88;;;;;;;15.30;100.00;101629.81;5291363;28;20103;-76
2022/10/02 10:50:47;;;;;;;12.45;4.80;;;;;;;15.34;100.00;101630.88;5281818;28;20032;-75
2022/10/02 10:53:31;;;;;;;13.00;5.40;;;;;;;15.40;99.95;101637.22;5282373;28;20048;-75
2022/10/02 10:56:25;;;;;;;14.65;4.88;;;;;;;15.48;100.00;101636.50;5282271;28;20028;-77
2022/10/02 10:59:12;;;;;;;11.43;5.57;;;;;;;15.50;100.00;101628.66;5271587;28;20085;-76
2022/10/02 11:02:04;;;;;;;13.05;5.78;;;;;;;15.53;99.95;101625.25;5282150;28;20480;-76
2022/10/02 11:05:17;;;;;;;12.73;5.60;;;;;;;15.55;99.62;101624.97;5281116;28;20032;-77
2022/10/02 11:07:57;;;;;;;34.08;26.02;;;;;;;15.61;100.00;101618.97;5257865;28;20040;-77
2022/10/02 11:10:46;;;;;;;17.60;7.97;;;;;;;15.59;98.17;101621.22;5281168;28;20039;-80
2022/10/02 11:13:53;;;;;;;14.30;5.63;;;;;;;15.66;98.43;101620.84;5281822;28;20016;-79
2022/10/02 11:16:43;;;;;;;10.40;4.45;;;;;;;15.64;96.39;101618.34;5282433;28;20028;-76
2022/10/02 11:19:33;;;;;;;15.05;4.50;;;;;;;15.70;96.90;101621.94;5281653;28;20415;-76
2022/10/02 11:22:15;;;;;;;10.80;4.70;;;;;;;15.74;95.80;101622.16;5281977;28;20565;-76
2022/10/02 11:25:09;;;;;;;14.93;4.72;;;;;;;15.81;96.73;101628.19;5280796;28;20028;-75
2022/10/02 11:27:46;;;;;;;15.95;5.38;;;;;;;15.81;94.84;101634.59;5281821;28;20036;-76
2022/10/02 11:30:23;;;;;;;10.35;4.03;;;;;;;15.85;95.97;101641.25;5281863;28;20025;-75
2022/10/02 11:33:11;;;;;;;14.00;4.65;;;;;;;15.83;94.30;101639.91;5281163;28;20029;-74
2022/10/02 11:36:06;;;;;;;14.35;5.20;;;;;;;15.81;93.88;101651.38;5281673;28;20036;-75
2022/10/02 11:39:12;;;;;;;15.30;4.78;;;;;;;15.80;92.88;101648.91;5299328;28;20523;-75
2022/10/02 11:42:25;;;;;;;13.15;5.53;;;;;;;15.79;92.38;101642.47;5303042;28;20080;-77
2022/10/02 11:45:19;;;;;;;10.68;5.15;;;;;;;15.74;92.65;101658.50;5294640;28;20028;-78
2022/10/02 11:48:34;;;;;;;17.00;4.45;;;;;;;15.75;93.85;101651.78;5302566;28;20635;-75
2022/10/02 11:51:16;;;;;;;12.30;4.60;;;;;;;15.83;95.75;101645.50;5286808;28;20039;-77
2022/10/02 11:54:00;;;;;;;13.57;5.20;;;;;;;15.98;95.73;101650.81;5301195;28;20386;-76
2022/10/02 11:57:00;;;;;;;16.85;5.50;;;;;;;16.00;93.21;101656.94;5287365;28;20081;-77
2022/10/02 11:59:32;;;;;;;11.82;5.53;;;;;;;16.11;92.93;101642.78;5280794;28;20237;-76
2022/10/02 12:02:13;;;;;;;17.98;6.57;;;;;;;16.14;92.33;101644.97;5281703;28;20112;-76
2022/10/02 12:05:09;;;;;;;10.85;5.50;;;;;;;16.08;92.49;101645.03;5281866;28;20047;-77
2022/10/02 12:07:51;;;;;;;14.95;6.30;;;;;;;15.95;92.58;101647.78;5293948;28;20027;-74
2022/10/02 12:10:51;;;;;;;18.75;12.80;;;;;;;15.95;94.51;101653.38;5323529;28;20024;-75
2022/10/02 12:13:38;;;;;;;23.08;10.32;;;;;;;15.88;98.98;101659.41;5281833;28;20440;-77
2022/10/02 12:16:14;;;;;;;14.45;7.82;;;;;;;15.72;98.75;101663.56;5282273;28;20032;-79
2022/10/02 12:18:54;;;;;;;15.45;7.10;;;;;;;15.61;100.00;101674.88;5282496;28;20028;-77
2022/10/02 12:28:12;;;;;;;15.18;7.45;;;;;;;15.28;100.00;101678.75;5281488;28;20203;-76
2022/10/02 12:31:02;;;;;;;15.13;8.45;;;;;;;15.25;100.00;101682.97;5281731;28;20012;-78
2022/10/02 12:33:43;;;;;;;13.98;7.68;;;;;;;15.26;100.00;101678.22;5281382;28;20032;-76
2022/10/02 12:36:20;;;;;;;14.68;8.73;;;;;;;15.30;100.00;101690.47;5280760;28;20028;-78
2022/10/02 12:39:13;;;;;;;15.55;6.95;;;;;;;15.28;100.00;101687.97;5281500;28;20029;-78
2022/10/02 12:42:08;;;;;;;19.33;15.32;;;;;;;15.34;100.00;101683.97;5280404;28;20036;-76
2022/10/02 12:45:00;;;;;;;14.07;10.23;;;;;;;15.42;100.00;101685.25;5283102;28;20051;-77
2022/10/02 12:47:48;;;;;;;16.20;6.00;;;;;;;15.57;100.00;101678.59;5304449;28;20123;-78
2022/10/02 12:50:32;;;;;;;13.15;5.40;;;;;;;15.73;100.00;101682.84;5305913;28;20398;-77
2022/10/02 12:53:42;;;;;;;13.63;6.63;;;;;;;15.94;100.00;101682.50;5306602;28;20020;-75
2022/10/02 12:56:40;;;;;;;10.82;5.78;;;;;;;16.01;100.00;101683.78;5305905;28;20058;-77
2022/10/02 12:59:43;;;;;;;10.25;5.70;;;;;;;15.96;100.00;101680.25;5295264;28;20040;-78
2022/10/02 13:02:40;;;;;;;13.65;5.85;;;;;;;15.97;100.00;101681.88;5285830;28;20032;-76
2022/10/02 13:05:27;;;;;;;13.68;7.50;;;;;;;15.95;100.00;101681.38;5282604;28;20391;-77
2022/10/02 13:08:10;;;;;;;11.38;5.18;;;;;;;15.74;100.00;101683.66;5301943;28;20036;-77
2022/10/02 13:10:56;;;;;;;14.98;4.70;;;;;;;15.74;100.00;101689.25;5326160;28;20032;-78
2022/10/02 13:13:46;;;;;;;11.93;5.35;;;;;;;15.66;100.00;101687.97;5326914;28;20028;-78
2022/10/02 13:17:04;;;;;;;15.68;5.97;;;;;;;15.65;98.29;101687.13;5326767;28;20451;-78
2022/10/02 13:20:04;;;;;;;15.63;4.70;;;;;;;15.54;94.00;101684.78;5306153;28;20033;-77
2022/10/02 13:23:00;;;;;;;7.53;3.47;;;;;;;15.59;95.98;101688.31;5270456;28;20056;-77
2022/10/02 13:25:53;;;;;;;8.77;3.70;;;;;;;15.67;95.88;101689.59;5283692;28;20085;-76
2022/10/02 13:28:33;;;;;;;9.73;4.05;;;;;;;15.69;96.41;101692.97;5284728;28;20095;-77
2022/10/02 13:31:35;;;;;;;11.63;3.72;;;;;;;15.90;97.38;101689.84;5283652;28;20028;-77
2022/10/02 13:34:51;;;;;;;12.85;3.63;;;;;;;15.93;93.86;101692.88;5284054;28;20471;-76
2022/10/02 13:37:48;;;;;;;6.80;3.25;;;;;;;16.07;91.87;101698.50;5300077;28;20024;-78
2022/10/02 13:40:30;;;;;;;9.80;4.22;;;;;;;16.16;90.75;101707.03;5304917;28;20049;-76
2022/10/02 13:43:29;;;;;;;12.35;5.28;;;;;;;16.28;90.75;101699.81;5305431;28;20148;-76
2022/10/02 13:46:19;;;;;;;9.70;4.75;;;;;;;16.38;91.09;101709.16;5304541;28;20031;-78
2022/10/02 13:49:11;;;;;;;10.88;3.67;;;;;;;16.45;89.65;101717.97;5304864;28;20024;-77
2022/10/02 13:51:51;;;;;;;9.98;3.63;;;;;;;16.36;87.70;101717.88;5305381;28;20032;-78
2022/10/02 13:54:28;;;;;;;9.68;3.03;;;;;;;16.45;88.60;101726.38;5303550;28;20042;-78
2022/10/02 13:57:32;;;;;;;10.45;3.83;;;;;;;16.44;86.35;101717.16;5304867;28;20031;-77
2022/10/02 14:00:22;;;;;;;7.85;2.88;;;;;;;16.47;84.11;101724.94;5301898;28;20502;-78
2022/10/02 14:03:28;;;;;;;11.98;4.35;;;;;;;16.51;80.25;101720.41;5284056;28;20017;-76
2022/10/02 14:06:10;;;;;;;8.15;3.03;;;;;;;16.56;82.03;101722.25;5283645;28;20035;-77
2022/10/02 14:08:59;;;;;;;7.35;3.28;;;;;;;16.62;79.36;101720.19;5297856;28;20068;-77
2022/10/02 14:12:03;;;;;;;8.38;2.90;;;;;;;16.70;78.64;101722.28;5286672;28;20037;-77
2022/10/02 14:15:17;;;;;;;6.65;2.75;;;;;;;16.78;77.54;101723.56;5282840;28;20385;-77
2022/10/02 14:18:12;;;;;;;8.38;2.70;;;;;;;16.78;76.94;101726.34;5283080;28;20024;-77
2022/10/02 14:20:51;;;;;;;8.52;2.78;;;;;;;16.90;79.09;101727.50;5282447;28;20061;-77
2022/10/02 14:23:44;;;;;;;6.60;2.90;;;;;;;17.05;79.52;101728.31;5283505;28;20033;-77
2022/10/02 14:26:48;;;;;;;9.60;2.38;;;;;;;16.99;76.13;101726.78;5282820;28;20028;-78
2022/10/02 14:29:36;;;;;;;7.30;2.63;;;;;;;16.83;74.83;101721.47;5282327;28;20031;-78
2022/10/02 14:32:25;;;;;;;9.15;2.75;;;;;;;16.66;74.09;101732.41;5283244;28;20442;-77
2022/10/02 14:35:19;;;;;;;7.60;3.08;;;;;;;16.64;72.97;101732.75;5282694;28;20206;-77
2022/10/02 14:38:24;;;;;;;10.13;2.70;;;;;;;16.68;72.70;101730.16;5282826;28;20033;-77
2022/10/02 14:41:00;;;;;;;6.78;2.53;;;;;;;16.85;75.38;101733.22;5282798;28;20032;-76
2022/10/02 14:43:53;;;;;;;8.63;2.70;;;;;;;16.86;71.15;101742.44;5283085;28;20501;-77
2022/10/02 14:46:42;;;;;;;7.47;2.85;;;;;;;16.89;72.26;101739.84;5303547;28;20032;-76
2022/10/02 14:49:40;;;;;;;8.23;2.13;;;;;;;17.01;71.80;101744.09;5303108;28;20483;-77
2022/10/02 14:52:29;;;;;;;9.73;2.45;;;;;;;16.98;70.13;101744.72;5283811;28;20081;-75
2022/10/02 14:55:03;;;;;;;8.25;2.65;;;;;;;17.00;69.83;101753.63;5281635;28;20112;-76
2022/10/02 14:57:51;;;;;;;5.97;2.95;;;;;;;17.13;71.59;101753.66;5281610;28;20112;-75
2022/10/02 15:00:24;;;;;;;7.82;2.53;;;;;;;17.08;69.32;101755.75;5286030;28;20036;-77
2022/10/02 15:03:34;;;;;;;11.02;3.50;;;;;;;17.10;69.17;101747.81;5302339;28;20028;-76
2022/10/02 15:06:19;;;;;;;9.73;2.60;;;;;;;17.03;67.02;101758.66;5282958;28;20055;-75
2022/10/02 15:09:41;;;;;;;7.73;2.77;;;;;;;17.14;68.90;101754.47;5314268;28;20027;-76
2022/10/02 15:12:43;;;;;;;6.22;2.30;;;;;;;17.17;68.49;101765.06;5218811;28;20030;-77
2022/10/02 15:15:24;;;;;;;8.80;2.75;;;;;;;17.17;67.81;101759.44;5282403;28;20031;-76
2022/10/02 15:18:19;;;;;;;7.90;2.35;;;;;;;17.28;68.35;101760.91;5282058;28;20119;-77
2022/10/02 15:21:16;;;;;;;9.00;4.00;;;;;;;17.28;69.71;101762.84;5264105;28;20383;-77
2022/10/02 15:23:50;;;;;;;7.10;2.28;;;;;;;17.14;68.26;101768.50;5281932;28;20086;-77
2022/10/02 15:26:49;;;;;;;8.68;2.17;;;;;;;17.05;69.22;101770.34;5283410;28;20029;-77
2022/10/02 15:29:46;;;;;;;9.57;2.45;;;;;;;16.83;68.78;101777.50;5283075;28;20376;-78
2022/10/02 15:32:33;;;;;;;8.98;2.55;;;;;;;16.74;70.16;101779.31;5282250;28;20032;-78
2022/10/02 15:35:31;;;;;;;8.07;2.63;;;;;;;16.59;70.41;101782.41;5283870;28;20020;-75
2022/10/02 15:38:36;;;;;;;8.75;2.97;;;;;;;16.48;70.80;101784.56;5282508;28;20471;-78
2022/10/02 15:41:10;;;;;;;7.30;2.72;;;;;;;16.49;71.50;101791.84;5282541;28;20029;-78
2022/10/02 15:44:07;;;;;;;11.25;4.05;;;;;;;16.46;72.17;101796.09;5284925;28;20043;-78
2022/10/02 15:47:16;;;;;;;10.48;3.42;;;;;;;16.46;71.45;101807.28;5285011;28;20032;-77
2022/10/02 15:50:18;;;;;;;10.60;3.05;;;;;;;16.48;72.40;101804.97;5281573;28;20036;-79
2022/10/02 15:53:20;;;;;;;6.88;2.40;;;;;;;16.46;70.73;101807.28;5294747;28;20027;-77
2022/10/02 15:55:59;;;;;;;12.00;3.00;;;;;;;16.46;71.65;101812.88;5289397;28;20049;-78
2022/10/02 15:58:52;;;;;;;7.90;2.85;;;;;;;16.38;71.22;101813.56;5283832;28;20025;-78
2022/10/02 16:01:52;;;;;;;10.23;3.55;;;;;;;16.30;72.08;101812.28;5284314;28;20040;-76
2022/10/02 16:04:50;;;;;;;9.18;4.50;;;;;;;16.30;71.93;101822.66;5283595;28;20028;-79
2022/10/02 16:07:34;;;;;;;47.08;38.80;;;;;;;16.18;71.72;101822.28;5290136;28;20023;-76
2022/10/02 16:10:16;;;;;;;8.68;3.75;;;;;;;16.16;72.81;101831.00;5295517;28;20040;-78
2022/10/02 16:13:14;;;;;;;11.65;4.78;;;;;;;16.13;72.52;101834.41;5281894;28;20372;-76
2022/10/02 16:16:21;;;;;;;11.00;3.55;;;;;;;16.00;72.72;101837.94;5282006;28;20059;-76
2022/10/02 16:19:11;;;;;;;8.52;3.03;;;;;;;15.96;72.93;101848.91;5267816;28;20464;-76
2022/10/02 16:22:19;;;;;;;10.85;3.70;;;;;;;15.96;73.79;101857.31;5281920;28;20549;-76
2022/10/02 16:25:06;;;;;;;10.70;4.70;;;;;;;15.86;73.90;101860.25;5285782;28;20025;-75
2022/10/02 16:27:51;;;;;;;9.85;3.22;;;;;;;15.78;73.81;101874.91;5285431;28;20032;-76
2022/10/02 16:30:25;;;;;;;12.30;5.15;;;;;;;15.75;73.74;101875.53;5285821;28;20021;-75
2022/10/02 16:33:15;;;;;;;12.52;4.10;;;;;;;15.66;74.82;101884.53;5285259;28;20100;-77
2022/10/02 16:36:08;;;;;;;8.85;2.88;;;;;;;15.65;74.04;101890.44;5284639;28;20036;-77
2022/10/02 16:38:39;;;;;;;8.95;3.72;;;;;;;15.62;75.60;101894.66;5285091;28;20041;-79
2022/10/02 16:41:33;;;;;;;7.57;3.20;;;;;;;15.64;75.27;101897.97;5284798;28;20562;-78
2022/10/02 16:44:31;;;;;;;13.18;3.10;;;;;;;15.57;75.02;101902.25;5285488;28;20614;-74
2022/10/02 16:47:27;;;;;;;11.18;3.85;;;;;;;15.55;76.38;101901.75;5284930;28;20036;-76
2022/10/02 16:50:25;;;;;;;9.40;3.60;;;;;;;15.52;76.55;101911.56;5285515;28;20059;-77
2022/10/02 16:53:10;;;;;;;9.80;3.15;;;;;;;15.44;76.25;101912.19;5284870;28;20045;-75
2022/10/02 16:55:46;;;;;;;11.68;6.93;;;;;;;15.40;76.72;101925.94;5284525;28;20025;-76
2022/10/02 16:58:25;;;;;;;16.38;7.03;;;;;;;15.34;77.37;101926.28;5283918;28;20052;-76
2022/10/02 17:01:00;;;;;;;9.77;4.93;;;;;;;15.34;76.84;101931.84;5297111;28;20433;-75
2022/10/02 17:03:35;;;;;;;;;;;;;;;15.41;76.02;101933.16;5299868;28;20067;-75
2022/10/02 17:06:16;;;;;;;7.72;3.83;;;;;;;15.20;76.85;101931.72;5284717;28;19912;-76
2022/10/02 17:09:05;;;;;;;14.18;3.78;;;;;;;15.19;77.16;101942.09;5315889;28;20072;-74
2022/10/02 17:11:50;;;;;;;9.05;3.60;;;;;;;15.12;77.49;101937.97;5285034;28;20028;-76
2022/10/02 17:15:05;;;;;;;8.98;3.15;;;;;;;15.14;77.64;101950.50;5285187;28;20051;-78
2022/10/02 17:18:10;;;;;;;8.73;3.40;;;;;;;15.07;77.64;101954.78;5283374;28;20024;-77
2022/10/02 17:20:47;;;;;;;9.32;2.90;;;;;;;15.00;77.63;101958.72;5284567;28;20036;-76
2022/10/02 17:23:43;;;;;;;10.48;2.67;;;;;;;14.93;78.26;101968.56;5283858;28;20035;-76
2022/10/02 17:26:42;;;;;;;12.90;3.30;;;;;;;14.92;78.81;101975.28;5285306;28;20029;-76
2022/10/02 17:29:43;;;;;;;9.77;3.55;;;;;;;14.87;79.23;101975.31;5285155;28;20027;-78
2022/10/02 17:32:51;;;;;;;11.25;3.17;;;;;;;14.84;79.04;101982.31;5276448;28;20039;-76
